createdAt,value
2016-04-18T00:00:38.240Z,99.99
2016-04-18T00:01:44.401Z,99.99
2016-04-18T00:02:38.057Z,99.99
2016-04-18T00:03:38.091Z,99.99
2016-04-18T00:04:38.093Z,99.99
2016-04-18T00:05:38.238Z,99.99
2016-04-18T00:06:50.852Z,99.99
2016-04-18T00:07:38.118Z,99.99
2016-04-18T00:08:57.529Z,99.99
2016-04-18T00:09:38.139Z,99.99
2016-04-18T00:11:09.472Z,99.99
2016-04-18T00:11:53.334Z,99.99
2016-04-18T00:12:53.352Z,99.99
2016-04-18T00:14:06.089Z,99.99
2016-04-18T00:14:53.379Z,99.99
2016-04-18T00:16:12.439Z,99.99
2016-04-18T00:16:53.485Z,99.99
2016-04-18T00:18:19.219Z,99.99
2016-04-18T00:19:03.140Z,99.99
2016-04-18T00:20:26.000Z,99.99
2016-04-18T00:21:09.471Z,99.99
2016-04-18T00:22:03.599Z,99.99
2016-04-18T00:23:15.992Z,99.99
2016-04-18T00:24:03.136Z,99.99
2016-04-18T00:25:03.305Z,99.99
2016-04-18T00:26:03.328Z,99.99
2016-04-18T00:27:03.556Z,99.99
2016-04-18T00:28:03.564Z,99.99
2016-04-18T00:29:16.120Z,99.99
2016-04-18T00:30:03.407Z,99.99
2016-04-18T00:31:22.631Z,99.99
2016-04-18T00:32:03.448Z,99.99
2016-04-18T00:33:22.671Z,99.99
2016-04-18T00:34:03.472Z,99.99
2016-04-18T00:35:29.164Z,99.99
2016-04-18T00:36:13.793Z,99.99
2016-04-18T00:38:23.347Z,99.99
2016-04-18T00:39:23.396Z,99.99
2016-04-18T00:40:23.368Z,99.99
2016-04-18T00:41:36.106Z,99.99
2016-04-18T00:42:29.656Z,99.99
2016-04-18T00:43:23.409Z,99.99
2016-04-18T00:44:23.412Z,99.99
2016-04-18T00:45:36.197Z,99.99
2016-04-18T00:46:23.652Z,99.99
2016-04-18T00:47:42.655Z,99.99
2016-04-18T00:48:23.469Z,99.99
2016-04-18T00:49:23.505Z,99.99
2016-04-18T00:50:36.242Z,99.99
2016-04-18T00:51:54.825Z,99.99
2016-04-18T00:52:42.731Z,99.99
2016-04-18T00:53:23.546Z,99.99
2016-04-18T00:54:23.564Z,99.99
2016-04-18T00:55:29.724Z,99.99
2016-04-18T00:56:52.338Z,99.99
2016-04-18T00:57:39.494Z,99.99
2016-04-18T00:58:26.700Z,99.99
2016-04-18T00:59:45.907Z,99.99
2016-04-18T01:00:29.785Z,99.99
2016-04-18T01:01:29.802Z,99.99
2016-04-18T01:02:31.243Z,99.99
2016-04-18T01:03:36.104Z,99.99
2016-04-18T01:04:29.841Z,99.99
2016-04-18T01:05:29.844Z,99.99
2016-04-18T01:06:29.863Z,99.99
2016-04-18T01:07:31.287Z,99.99
2016-04-18T01:08:42.634Z,99.99
2016-04-18T01:09:29.901Z,99.99
2016-04-18T01:10:29.920Z,99.99
2016-04-18T01:11:29.907Z,99.99
2016-04-18T01:12:29.942Z,99.99
2016-04-18T01:13:45.865Z,99.99
2016-04-18T01:14:33.118Z,99.99
2016-04-18T01:15:33.152Z,99.99
2016-04-18T01:16:33.170Z,99.99
2016-04-18T01:17:33.783Z,99.99
2016-04-18T01:18:33.191Z,99.99
2016-04-18T01:19:33.242Z,99.99
2016-04-18T01:20:33.197Z,99.99
2016-04-18T01:21:33.824Z,99.99
2016-04-18T01:22:33.250Z,99.99
2016-04-18T01:23:34.674Z,99.99
2016-04-18T01:24:46.019Z,99.99
2016-04-18T01:25:33.273Z,99.99
2016-04-18T01:26:52.496Z,99.99
2016-04-18T01:27:46.027Z,99.99
2016-04-18T01:28:33.313Z,99.99
2016-04-18T01:29:33.315Z,99.99
2016-04-18T01:31:48.573Z,99.99
2016-04-18T01:32:48.591Z,99.99
2016-04-18T01:33:54.876Z,99.99
2016-04-18T01:35:01.347Z,99.99
2016-04-18T01:35:48.629Z,99.99
2016-04-18T01:36:48.646Z,99.99
2016-04-18T01:37:48.665Z,99.99
2016-04-18T01:38:48.935Z,99.99
2016-04-18T01:39:48.685Z,99.99
2016-04-18T01:40:48.703Z,99.99
2016-04-18T01:41:48.723Z,99.99
2016-04-18T01:42:48.740Z,99.99
2016-04-18T01:43:48.743Z,99.99
2016-04-18T01:44:48.746Z,99.99
2016-04-18T01:45:48.765Z,99.99
2016-04-18T01:46:48.829Z,99.99
2016-04-18T01:47:48.786Z,99.99
2016-04-18T01:48:48.788Z,99.99
2016-04-18T01:49:48.791Z,99.99
2016-04-18T01:51:01.561Z,99.99
2016-04-18T01:51:48.842Z,99.99
2016-04-18T01:52:48.830Z,99.99
2016-04-18T01:54:01.616Z,99.99
2016-04-18T01:54:48.882Z,99.99
2016-04-18T01:55:48.900Z,99.99
2016-04-18T01:56:55.188Z,99.99
2016-04-18T01:57:48.922Z,99.99
2016-04-18T01:58:48.924Z,99.99
2016-04-18T02:00:01.663Z,99.99
2016-04-18T02:00:48.945Z,99.99
2016-04-18T02:02:14.638Z,99.99
2016-04-18T02:02:58.499Z,99.99
2016-04-18T02:03:58.535Z,99.99
2016-04-18T02:04:58.521Z,99.99
2016-04-18T02:05:58.523Z,99.99
2016-04-18T02:06:58.573Z,99.99
2016-04-18T02:07:58.655Z,99.99
2016-04-18T02:09:11.360Z,99.99
2016-04-18T02:10:04.878Z,99.99
2016-04-18T02:10:58.615Z,99.99
2016-04-18T02:12:11.353Z,99.99
2016-04-18T02:12:58.637Z,99.99
2016-04-18T02:13:58.639Z,99.99
2016-04-18T02:14:58.657Z,99.99
2016-04-18T02:15:58.676Z,99.99
2016-04-18T02:17:04.959Z,99.99
2016-04-18T02:18:17.915Z,99.99
2016-04-18T02:18:58.715Z,99.99
2016-04-18T02:19:58.734Z,99.99
2016-04-18T02:20:58.752Z,99.99
2016-04-18T02:21:58.755Z,99.99
2016-04-18T02:23:11.585Z,99.99
2016-04-18T02:23:58.760Z,99.99
2016-04-18T02:24:58.793Z,99.99
2016-04-18T02:25:58.797Z,99.99
2016-04-18T02:26:58.814Z,99.99
2016-04-18T02:27:58.849Z,99.99
2016-04-18T02:29:11.570Z,99.99
2016-04-18T02:29:58.854Z,99.99
2016-04-18T02:31:18.169Z,99.99
2016-04-18T02:32:04.985Z,99.99
2016-04-18T02:32:58.893Z,99.99
2016-04-18T02:33:58.912Z,99.99
2016-04-18T02:34:58.915Z,99.99
2016-04-18T02:35:58.917Z,99.99
2016-04-18T02:36:58.935Z,99.99
2016-04-18T02:37:58.968Z,99.99
2016-04-18T02:38:58.957Z,99.99
2016-04-18T02:39:58.991Z,99.99
2016-04-18T02:40:59.009Z,99.99
2016-04-18T02:41:59.074Z,99.99
2016-04-18T02:43:05.295Z,99.99
2016-04-18T02:43:59.031Z,99.99
2016-04-18T02:45:18.237Z,99.99
2016-04-18T02:46:02.131Z,99.99
2016-04-18T02:47:01.509Z,99.99
2016-04-18T02:48:02.167Z,99.99
2016-04-18T02:49:02.217Z,99.99
2016-04-18T02:50:02.173Z,99.99
2016-04-18T02:51:02.192Z,99.99
2016-04-18T02:52:03.444Z,99.99
2016-04-18T02:53:03.634Z,99.99
2016-04-18T02:54:27.903Z,99.99
2016-04-18T02:55:05.281Z,99.99
2016-04-18T02:56:02.252Z,99.99
2016-04-18T02:57:15.005Z,99.99
2016-04-18T02:58:02.272Z,99.99
2016-04-18T02:59:21.495Z,99.99
2016-04-18T03:00:02.309Z,99.99
2016-04-18T03:01:02.313Z,99.99
2016-04-18T03:02:02.346Z,99.99
2016-04-18T03:03:02.333Z,99.99
2016-04-18T03:04:02.413Z,99.99
2016-04-18T03:05:02.370Z,99.99
2016-04-18T03:06:02.419Z,99.99
2016-04-18T03:07:02.391Z,99.99
2016-04-18T03:08:02.394Z,99.99
2016-04-18T03:09:02.428Z,99.99
2016-04-18T03:10:02.446Z,99.99
2016-04-18T03:11:02.449Z,99.99
2016-04-18T03:12:15.201Z,99.99
2016-04-18T03:13:03.063Z,99.99
2016-04-18T03:14:21.676Z,99.99
2016-04-18T03:15:01.741Z,99.99
2016-04-18T03:16:02.509Z,99.99
2016-04-18T03:17:02.559Z,99.99
2016-04-18T03:18:03.140Z,99.99
2016-04-18T03:19:03.204Z,99.99
2016-04-18T03:20:15.301Z,99.99
2016-04-18T03:21:15.350Z,99.99
2016-04-18T03:22:02.587Z,99.99
2016-04-18T03:23:28.278Z,99.99
2016-04-18T03:24:31.390Z,99.99
2016-04-18T03:25:12.158Z,99.99
2016-04-18T03:26:12.161Z,99.99
2016-04-18T03:27:12.225Z,99.99
2016-04-18T03:28:12.182Z,99.99
2016-04-18T03:29:34.465Z,99.99
2016-04-18T03:30:21.749Z,99.99
2016-04-18T03:31:40.971Z,99.99
2016-04-18T03:32:21.771Z,99.99
2016-04-18T03:33:47.446Z,99.99
2016-04-18T03:34:31.307Z,99.99
2016-04-18T03:35:31.326Z,99.99
2016-04-18T03:36:31.343Z,99.99
2016-04-18T03:37:50.565Z,99.99
2016-04-18T03:38:31.380Z,99.99
2016-04-18T03:39:31.258Z,99.99
2016-04-18T03:40:44.136Z,99.99
2016-04-18T03:41:31.404Z,99.99
2016-04-18T03:42:44.173Z,99.99
2016-04-18T03:43:32.035Z,99.99
2016-04-18T03:44:44.178Z,99.99
2016-04-18T03:45:32.259Z,99.99
2016-04-18T03:46:50.667Z,99.99
2016-04-18T03:47:40.796Z,99.99
2016-04-18T03:49:56.850Z,99.99
2016-04-18T03:50:56.837Z,99.99
2016-04-18T03:52:03.137Z,99.99
2016-04-18T03:53:03.155Z,99.99
2016-04-18T03:54:03.158Z,99.99
2016-04-18T03:55:16.113Z,99.99
2016-04-18T03:56:03.163Z,99.99
2016-04-18T03:57:16.119Z,99.99
2016-04-18T03:57:56.934Z,99.99
2016-04-18T04:00:12.143Z,99.99
2016-04-18T04:01:12.146Z,99.99
2016-04-18T04:02:18.430Z,99.99
2016-04-18T04:03:12.167Z,99.99
2016-04-18T04:04:31.404Z,99.99
2016-04-18T04:05:15.313Z,99.99
2016-04-18T04:06:15.330Z,99.99
2016-04-18T04:07:21.630Z,99.99
2016-04-18T04:08:14.696Z,99.99
2016-04-18T04:09:15.370Z,99.99
2016-04-18T04:10:15.373Z,99.99
2016-04-18T04:11:21.673Z,99.99
2016-04-18T04:12:15.379Z,99.99
2016-04-18T04:13:28.146Z,99.99
2016-04-18T04:14:15.431Z,99.99
2016-04-18T04:15:15.449Z,99.99
2016-04-18T04:16:15.451Z,99.99
2016-04-18T04:17:28.204Z,99.99
2016-04-18T04:18:28.238Z,99.99
2016-04-18T04:19:34.709Z,99.99
2016-04-18T04:20:41.243Z,99.99
2016-04-18T04:21:25.105Z,99.99
2016-04-18T04:22:25.124Z,99.99
2016-04-18T04:23:25.126Z,99.99
2016-04-18T04:24:25.176Z,99.99
2016-04-18T04:25:25.164Z,99.99
2016-04-18T04:26:25.197Z,99.99
2016-04-18T04:27:25.200Z,99.99
2016-04-18T04:28:25.311Z,99.99
2016-04-18T04:29:25.222Z,99.99
2016-04-18T04:30:25.255Z,99.99
2016-04-18T04:31:25.258Z,99.99
2016-04-18T04:32:25.291Z,99.99
2016-04-18T04:33:25.278Z,99.99
2016-04-18T04:34:25.313Z,99.99
2016-04-18T04:35:25.315Z,99.99
2016-04-18T04:36:25.333Z,99.99
2016-04-18T04:37:25.335Z,99.99
2016-04-18T04:38:25.354Z,99.99
2016-04-18T04:39:25.404Z,99.99
2016-04-18T04:40:25.376Z,99.99
2016-04-18T04:41:25.457Z,99.99
2016-04-18T04:42:25.443Z,99.99
2016-04-18T04:43:25.477Z,99.99
2016-04-18T04:44:25.448Z,99.99
2016-04-18T04:45:38.217Z,99.99
2016-04-18T04:46:25.469Z,99.99
2016-04-18T04:47:44.721Z,99.99
2016-04-18T04:48:25.489Z,99.99
2016-04-18T04:50:36.480Z,99.99
2016-04-18T04:51:36.498Z,99.99
2016-04-18T04:52:36.516Z,99.99
2016-04-18T04:53:36.535Z,99.99
2016-04-18T04:54:36.678Z,99.99
2016-04-18T04:55:36.555Z,99.99
2016-04-18T04:56:36.574Z,99.53
2016-04-18T04:57:49.327Z,99.77
2016-04-18T04:58:49.344Z,99.87
2016-04-18T04:59:36.629Z,99.99
2016-04-18T05:00:49.382Z,99.77
2016-04-18T05:01:36.649Z,98.82
2016-04-18T05:02:55.873Z,98.54
2016-04-18T05:03:36.686Z,98.54
2016-04-18T05:05:51.863Z,97.69
2016-04-18T05:06:51.882Z,98.54
2016-04-18T05:07:51.151Z,98.16
2016-04-18T05:08:51.903Z,98.63
2016-04-18T05:09:51.921Z,97.88
2016-04-18T05:10:51.923Z,97.31
2016-04-18T05:12:17.632Z,95.69
2016-04-18T05:13:04.541Z,95.5
2016-04-18T05:14:20.778Z,95.69
2016-04-18T05:15:07.797Z,95.31
2016-04-18T05:16:27.237Z,95.31
2016-04-18T05:17:01.677Z,95.12
2016-04-18T05:18:01.586Z,94.37
2016-04-18T05:19:14.338Z,94.37
2016-04-18T05:20:14.388Z,93.99
2016-04-18T05:21:01.625Z,94.08
2016-04-18T05:22:20.847Z,93.41
2016-04-18T05:23:20.849Z,93.04
2016-04-18T05:24:01.680Z,92.85
2016-04-18T05:25:16.917Z,93.13
2016-04-18T05:26:16.919Z,92.61
2016-04-18T05:27:16.938Z,92.8
2016-04-18T05:28:16.971Z,91.85
2016-04-18T05:29:16.974Z,92.33
2016-04-18T05:30:17.014Z,91.66
2016-04-18T05:31:17.002Z,91.09
2016-04-18T05:32:17.020Z,91.28
2016-04-18T05:33:29.772Z,91.19
2016-04-18T05:34:17.666Z,91.09
2016-04-18T05:35:17.059Z,90.33
2016-04-18T05:36:17.155Z,90.14
2016-04-18T05:37:17.096Z,89.86
2016-04-18T05:38:17.115Z,89.86
2016-04-18T05:39:17.133Z,89.95
2016-04-18T05:40:17.151Z,89.76
2016-04-18T05:41:17.154Z,89.67
2016-04-18T05:42:29.906Z,89.2
2016-04-18T05:43:17.190Z,89.1
2016-04-18T05:44:17.192Z,88.53
2016-04-18T05:45:17.211Z,88.1
2016-04-18T05:46:17.229Z,88.2
2016-04-18T05:47:17.263Z,88.39
2016-04-18T05:48:17.298Z,88.01
2016-04-18T05:49:17.315Z,88.1
2016-04-18T05:50:17.303Z,88.01
2016-04-18T05:51:17.305Z,87.91
2016-04-18T05:52:17.339Z,87.53
2016-04-18T05:53:17.358Z,87.05
2016-04-18T05:54:17.376Z,87.24
2016-04-18T05:55:17.411Z,87.34
2016-04-18T05:56:17.414Z,87.34
2016-04-18T05:57:17.416Z,86.77
2016-04-18T05:58:17.434Z,85.72
2016-04-18T05:59:17.436Z,85.68
2016-04-18T06:00:17.470Z,85.96
2016-04-18T06:01:17.488Z,85.11
2016-04-18T06:02:17.507Z,85.01
2016-04-18T06:03:17.510Z,84.44
2016-04-18T06:04:17.591Z,85.3
2016-04-18T06:05:17.547Z,84.82
2016-04-18T06:06:17.549Z,84.25
2016-04-18T06:07:17.568Z,82.92
2016-04-18T06:08:17.913Z,82.92
2016-04-18T06:09:17.619Z,83.68
2016-04-18T06:10:17.637Z,83.2
2016-04-18T06:11:17.640Z,83.11
2016-04-18T06:12:23.924Z,82.35
2016-04-18T06:13:17.818Z,82.35
2016-04-18T06:14:17.712Z,83.59
2016-04-18T06:15:30.948Z,83.49
2016-04-18T06:16:17.732Z,83.59
2016-04-18T06:17:17.734Z,83.11
2016-04-18T06:18:17.801Z,82.2
2016-04-18T06:19:17.787Z,81.73
2016-04-18T06:20:17.806Z,81.16
2016-04-18T06:21:17.886Z,81.25
2016-04-18T06:22:17.842Z,81.35
2016-04-18T06:23:17.860Z,81.54
2016-04-18T06:24:17.878Z,81.54
2016-04-18T06:25:17.881Z,80.87
2016-04-18T06:26:17.915Z,81.25
2016-04-18T06:27:17.918Z,81.63
2016-04-18T06:28:17.952Z,81.16
2016-04-18T06:29:17.955Z,81.44
2016-04-18T06:30:18.676Z,81.73
2016-04-18T06:31:17.991Z,81.82
2016-04-18T06:32:18.010Z,81.54
2016-04-18T06:33:18.012Z,81.82
2016-04-18T06:34:18.062Z,81.82
2016-04-18T06:35:18.064Z,82.1
2016-04-18T06:36:18.067Z,82.87
2016-04-18T06:37:18.086Z,83.44
2016-04-18T06:38:18.104Z,83.15
2016-04-18T06:39:18.121Z,83.25
2016-04-18T06:40:18.141Z,82.29
2016-04-18T06:41:18.174Z,82.29
2016-04-18T06:42:18.162Z,82.29
2016-04-18T06:43:18.258Z,81.44
2016-04-18T06:44:30.948Z,81.44
2016-04-18T06:45:18.248Z,81.73
2016-04-18T06:46:18.250Z,81.63
2016-04-18T06:47:18.268Z,81.35
2016-04-18T06:48:18.287Z,80.44
2016-04-18T06:49:18.493Z,80.3
2016-04-18T06:50:31.059Z,80.87
2016-04-18T06:51:31.076Z,81.01
2016-04-18T06:52:37.579Z,81.63
2016-04-18T06:53:18.362Z,81.25
2016-04-18T06:54:44.069Z,81.38
2016-04-18T06:55:28.056Z,81.35
2016-04-18T06:56:28.075Z,80.58
2016-04-18T06:57:28.108Z,81.35
2016-04-18T06:58:28.111Z,81.06
2016-04-18T06:59:28.113Z,80.68
2016-04-18T07:00:28.241Z,81.16
2016-04-18T07:01:28.165Z,81.25
2016-04-18T07:02:28.183Z,81.16
2016-04-18T07:03:28.202Z,81.06
2016-04-18T07:04:28.220Z,81.54
2016-04-18T07:05:28.238Z,81.25
2016-04-18T07:06:28.257Z,81.63
2016-04-18T07:07:28.275Z,81.73
2016-04-18T07:08:28.294Z,81.44
2016-04-18T07:09:28.313Z,80.96
2016-04-18T07:10:28.315Z,80.4
2016-04-18T07:11:28.349Z,80.4
2016-04-18T07:12:41.101Z,79.54
2016-04-18T07:13:28.479Z,79.35
2016-04-18T07:14:28.403Z,79.49
2016-04-18T07:15:28.407Z,79.39
2016-04-18T07:16:47.643Z,78.82
2016-04-18T07:17:28.459Z,78.25
2016-04-18T07:18:28.476Z,77.97
2016-04-18T07:19:28.495Z,77.11
2016-04-18T07:20:28.497Z,77.58
2016-04-18T07:21:28.523Z,76.92
2016-04-18T07:22:28.541Z,76.44
2016-04-18T07:23:28.544Z,76.16
2016-04-18T07:24:28.578Z,75.34
2016-04-18T07:25:28.581Z,74.58
2016-04-18T07:26:34.896Z,74.77
2016-04-18T07:27:28.633Z,74.01
2016-04-18T07:28:28.652Z,73.53
2016-04-18T07:29:28.654Z,74.2
2016-04-18T07:30:34.954Z,74.87
2016-04-18T07:31:28.707Z,75.34
2016-04-18T07:32:48.021Z,73.82
2016-04-18T07:33:28.727Z,75.02
2016-04-18T07:34:28.746Z,75.11
2016-04-18T07:35:28.763Z,74.92
2016-04-18T07:36:28.782Z,74.92
2016-04-18T07:37:28.800Z,74.63
2016-04-18T07:38:28.818Z,73.69
2016-04-18T07:39:28.868Z,74.35
2016-04-18T07:40:28.870Z,74.16
2016-04-18T07:41:28.873Z,74.26
2016-04-18T07:42:28.876Z,74.82
2016-04-18T07:43:28.909Z,74.82
2016-04-18T07:44:28.928Z,74.54
2016-04-18T07:45:28.947Z,74.54
2016-04-18T07:46:28.980Z,74.35
2016-04-18T07:47:28.983Z,74.63
2016-04-18T07:48:29.002Z,73.91
2016-04-18T07:49:29.005Z,73.59
2016-04-18T07:50:35.304Z,73.15
2016-04-18T07:51:29.042Z,72.86
2016-04-18T07:52:29.106Z,72.2
2016-04-18T07:53:29.109Z,71.82
2016-04-18T07:54:29.205Z,72.11
2016-04-18T07:55:29.114Z,71.34
2016-04-18T07:56:41.882Z,70.3
2016-04-18T07:57:29.166Z,70.68
2016-04-18T07:58:54.857Z,70.3
2016-04-18T07:59:38.719Z,69.73
2016-04-18T08:00:38.784Z,69.38
2016-04-18T08:01:38.755Z,68.43
2016-04-18T08:02:38.773Z,69.29
2016-04-18T08:03:51.527Z,67.67
2016-04-18T08:04:38.810Z,67.95
2016-04-18T08:06:04.534Z,69.1
2016-04-18T08:06:38.862Z,69.38
2016-04-18T08:07:38.865Z,69.48
2016-04-18T08:08:38.884Z,69.1
2016-04-18T08:09:45.168Z,68.15
2016-04-18T08:10:40.342Z,67.86
2016-04-18T08:11:38.939Z,67.38
2016-04-18T08:12:38.956Z,67.19
2016-04-18T08:13:39.115Z,67.38
2016-04-18T08:14:39.009Z,68.05
2016-04-18T08:15:39.027Z,67.38
2016-04-18T08:16:39.045Z,66.81
2016-04-18T08:17:39.064Z,66.43
2016-04-18T08:18:39.083Z,65.86
2016-04-18T08:19:39.100Z,65.48
2016-04-18T08:20:39.120Z,65.23
2016-04-18T08:21:39.122Z,65.32
2016-04-18T08:22:39.156Z,64.65
2016-04-18T08:23:39.159Z,63.99
2016-04-18T08:24:39.256Z,63.51
2016-04-18T08:25:39.211Z,63.99
2016-04-18T08:26:39.213Z,63.13
2016-04-18T08:27:51.966Z,63.04
2016-04-18T08:28:39.280Z,63.6
2016-04-18T08:29:58.490Z,63.51
2016-04-18T08:30:39.302Z,63.7
2016-04-18T08:31:39.321Z,62.85
2016-04-18T08:32:39.355Z,63.6
2016-04-18T08:33:39.374Z,64.18
2016-04-18T08:34:39.376Z,63.8
2016-04-18T08:35:39.393Z,63.04
2016-04-18T08:36:39.413Z,62.75
2016-04-18T08:37:39.430Z,62.75
2016-04-18T08:38:39.449Z,62.27
2016-04-18T08:39:39.483Z,61.9
2016-04-18T08:40:39.485Z,62.65
2016-04-18T08:41:39.598Z,62.18
2016-04-18T08:42:39.537Z,61.22
2016-04-18T08:43:39.571Z,60.75
2016-04-18T08:44:39.574Z,61.32
2016-04-18T08:45:39.593Z,61.32
2016-04-18T08:46:39.595Z,61.13
2016-04-18T08:47:39.629Z,60.85
2016-04-18T08:48:39.663Z,61.45
2016-04-18T08:49:39.650Z,61.45
2016-04-18T08:50:39.684Z,60.3
2016-04-18T08:51:39.687Z,59.74
2016-04-18T08:52:39.737Z,56.78
2016-04-18T08:53:39.723Z,56.97
2016-04-18T08:54:39.851Z,56.68
2016-04-18T08:55:39.776Z,57.92
2016-04-18T08:56:39.810Z,58.02
2016-04-18T08:57:39.812Z,57.26
2016-04-18T08:58:39.830Z,57.45
2016-04-18T08:59:39.849Z,56.9
2016-04-18T09:00:39.866Z,56.43
2016-04-18T09:01:39.902Z,56.43
2016-04-18T09:02:39.919Z,55.76
2016-04-18T09:03:40.047Z,55.57
2016-04-18T09:04:39.971Z,55.66
2016-04-18T09:05:40.038Z,56.14
2016-04-18T09:06:40.008Z,56.04
2016-04-18T09:07:40.011Z,55.09
2016-04-18T09:08:40.030Z,54.36
2016-04-18T09:09:40.064Z,54.14
2016-04-18T09:10:40.097Z,54.26
2016-04-18T09:11:40.084Z,54.93
2016-04-18T09:12:40.135Z,55.02
2016-04-18T09:13:40.151Z,54.74
2016-04-18T09:14:40.155Z,54.17
2016-04-18T09:15:46.454Z,53.41
2016-04-18T09:16:40.207Z,51.97
2016-04-18T09:17:40.241Z,50.67
2016-04-18T09:18:40.290Z,50.83
2016-04-18T09:19:52.997Z,52.76
2016-04-18T09:20:40.296Z,50.18
2016-04-18T09:21:40.339Z,49.8
2016-04-18T09:22:40.384Z,50.95
2016-04-18T09:23:40.460Z,51.59
2016-04-18T09:24:53.240Z,51.81
2016-04-18T09:25:40.595Z,51.23
2016-04-18T09:27:06.314Z,50.47
2016-04-18T09:28:15.927Z,50.95
2016-04-18T09:28:50.224Z,51.14
2016-04-18T09:29:50.272Z,50.28
2016-04-18T09:30:50.307Z,49.35
2016-04-18T09:31:56.615Z,48.49
2016-04-18T09:32:50.389Z,48.39
2016-04-18T09:34:09.607Z,48.39
2016-04-18T09:34:50.435Z,48.21
2016-04-18T09:37:31.954Z,48.97
2016-04-18T09:38:06.304Z,48.78
2016-04-18T09:39:06.338Z,48.88
2016-04-18T09:40:06.359Z,48.02
2016-04-18T09:41:06.425Z,48.8
2016-04-18T09:42:21.679Z,48.13
2016-04-18T09:43:21.682Z,47.49
2016-04-18T09:44:21.717Z,46.72
2016-04-18T09:45:21.080Z,46.08
2016-04-18T09:46:22.427Z,45.98
2016-04-18T09:47:21.774Z,46.27
2016-04-18T09:48:21.792Z,45.7
2016-04-18T09:49:21.825Z,46.06
2016-04-18T09:50:21.843Z,45.89
2016-04-18T09:51:21.909Z,46.92
2016-04-18T09:52:21.880Z,46.37
2016-04-18T09:53:21.914Z,46.82
2016-04-18T09:54:34.651Z,47.03
2016-04-18T09:55:22.623Z,45.79
2016-04-18T09:56:21.985Z,46.27
2016-04-18T09:57:22.019Z,46.66
2016-04-18T09:58:22.021Z,46.84
2016-04-18T09:59:22.040Z,45.12
2016-04-18T10:00:22.059Z,44.45
2016-04-18T10:01:22.076Z,43.79
2016-04-18T10:02:22.189Z,45.6
2016-04-18T10:03:22.144Z,46.08
2016-04-18T10:04:22.194Z,44.84
2016-04-18T10:05:22.197Z,45.98
2016-04-18T10:06:22.231Z,45.22
2016-04-18T10:07:22.234Z,45.03
2016-04-18T10:08:22.251Z,45.7
2016-04-18T10:09:22.270Z,43.8
2016-04-18T10:10:22.289Z,43.23
2016-04-18T10:11:22.431Z,43.79
2016-04-18T10:12:22.325Z,43.88
2016-04-18T10:13:22.409Z,44.26
2016-04-18T10:14:22.380Z,43.98
2016-04-18T10:15:22.414Z,44.48
2016-04-18T10:16:22.417Z,44.86
2016-04-18T10:17:22.451Z,44.09
2016-04-18T10:18:22.500Z,45.15
2016-04-18T10:19:22.487Z,44.48
2016-04-18T10:20:22.536Z,45.36
2016-04-18T10:21:22.555Z,42.97
2016-04-18T10:22:22.574Z,42.87
2016-04-18T10:23:22.591Z,42.94
2016-04-18T10:24:22.641Z,42.47
2016-04-18T10:25:22.660Z,42.4
2016-04-18T10:26:22.662Z,42.01
2016-04-18T10:27:22.696Z,42.37
2016-04-18T10:28:22.746Z,43.62
2016-04-18T10:29:22.811Z,43.71
2016-04-18T10:30:22.751Z,43.92
2016-04-18T10:31:22.785Z,43.83
2016-04-18T10:32:22.803Z,42.58
2016-04-18T10:33:22.821Z,41.91
2016-04-18T10:34:22.856Z,42.85
2016-04-18T10:35:22.906Z,43.9
2016-04-18T10:36:23.065Z,43.23
2016-04-18T10:37:22.957Z,43.43
2016-04-18T10:38:22.945Z,44.95
2016-04-18T10:39:22.994Z,43.35
2016-04-18T10:40:22.998Z,44.19
2016-04-18T10:41:23.014Z,44.38
2016-04-18T10:42:23.049Z,44.31
2016-04-18T10:43:35.817Z,43.63
2016-04-18T10:44:23.101Z,42.77
2016-04-18T10:45:23.135Z,42.22
2016-04-18T10:46:23.139Z,42.13
2016-04-18T10:47:23.156Z,42.7
2016-04-18T10:48:23.206Z,41.86
2016-04-18T10:49:23.209Z,41.57
2016-04-18T10:50:23.228Z,41.77
2016-04-18T10:51:23.276Z,41.57
2016-04-18T10:52:23.279Z,40.9
2016-04-18T10:53:23.610Z,39.87
2016-04-18T10:54:23.316Z,39.48
2016-04-18T10:55:29.630Z,41.11
2016-04-18T10:56:25.649Z,39.68
2016-04-18T10:57:42.621Z,39.41
2016-04-18T10:58:23.435Z,40.56
2016-04-18T10:59:23.471Z,38.35
2016-04-18T11:00:23.473Z,36.53
2016-04-18T11:01:23.647Z,36.24
2016-04-18T11:02:36.274Z,38.35
2016-04-18T11:03:23.559Z,38.05
2016-04-18T11:04:49.264Z,37.47
2016-04-18T11:05:33.064Z,37.28
2016-04-18T11:06:33.004Z,37.55
2016-04-18T11:07:33.022Z,39.75
2016-04-18T11:08:33.072Z,39.29
2016-04-18T11:09:33.090Z,38.14
2016-04-18T11:10:33.125Z,37.57
2016-04-18T11:11:33.142Z,37.68
2016-04-18T11:12:33.161Z,38.54
2016-04-18T11:13:33.195Z,38.16
2016-04-18T11:14:33.213Z,36.63
2016-04-18T11:15:33.232Z,37.01
2016-04-18T11:16:45.984Z,37.68
2016-04-18T11:17:33.284Z,38.35
2016-04-18T11:18:33.302Z,37.4
2016-04-18T11:19:33.352Z,37.95
2016-04-18T11:20:33.370Z,39.29
2016-04-18T11:21:33.216Z,38.79
2016-04-18T11:22:33.470Z,39.25
2016-04-18T11:23:33.441Z,39.83
2016-04-18T11:24:33.444Z,40.69
2016-04-18T11:25:33.493Z,40.69
2016-04-18T11:26:33.496Z,38.68
2016-04-18T11:27:33.545Z,38.87
2016-04-18T11:28:33.752Z,38.68
2016-04-18T11:29:33.629Z,40.02
2016-04-18T11:30:33.631Z,40.59
2016-04-18T11:31:33.634Z,40.12
2016-04-18T11:32:33.684Z,39.25
2016-04-18T11:33:33.687Z,38.03
2016-04-18T11:34:33.736Z,37.47
2016-04-18T11:35:33.723Z,37.38
2016-04-18T11:36:33.756Z,37.09
2016-04-18T11:37:33.790Z,36.99
2016-04-18T11:38:33.809Z,39.29
2016-04-18T11:39:53.031Z,38.54
2016-04-18T11:40:33.877Z,37.3
2016-04-18T11:41:33.879Z,37.3
2016-04-18T11:42:33.929Z,36.63
2016-04-18T11:43:33.947Z,35.67
2016-04-18T11:44:46.700Z,36.04
2016-04-18T11:45:40.250Z,35.55
2016-04-18T11:46:59.518Z,37.28
2016-04-18T11:47:34.036Z,37.47
2016-04-18T11:48:34.070Z,36.11
2016-04-18T11:49:34.464Z,36.59
2016-04-18T11:50:34.263Z,37.16
2016-04-18T11:51:34.453Z,37.93
2016-04-18T11:52:34.269Z,37.82
2016-04-18T11:53:34.491Z,39.25
2016-04-18T11:54:34.259Z,40.78
2016-04-18T11:55:34.449Z,40.48
2016-04-18T11:56:34.874Z,39.9
2016-04-18T11:57:34.391Z,38.66
2016-04-18T11:58:47.066Z,39.6
2016-04-18T11:59:34.943Z,40.46
2016-04-18T12:01:00.071Z,42.73
2016-04-18T12:01:43.949Z,42.93
2016-04-18T12:02:43.983Z,43.21
2016-04-18T12:03:44.001Z,43.3
2016-04-18T12:04:44.021Z,43.69
2016-04-18T12:05:44.037Z,43.88
2016-04-18T12:06:44.087Z,43.21
2016-04-18T12:07:44.106Z,42.93
2016-04-18T12:08:44.109Z,43.29
2016-04-18T12:09:56.909Z,44.15
2016-04-18T12:10:56.942Z,44.53
2016-04-18T12:12:03.382Z,45.39
2016-04-18T12:12:44.370Z,45.2
2016-04-18T12:13:44.387Z,45.2
2016-04-18T12:14:44.359Z,44.91
2016-04-18T12:15:44.392Z,44.89
2016-04-18T12:16:57.036Z,45.94
2016-04-18T12:17:57.211Z,45.94
2016-04-18T12:19:10.028Z,45.27
2016-04-18T12:19:44.481Z,45.67
2016-04-18T12:20:44.391Z,45.2
2016-04-18T12:21:44.519Z,44.81
2016-04-18T12:22:44.443Z,45.87
2016-04-18T12:23:50.884Z,45.01
2016-04-18T12:24:44.494Z,45.39
2016-04-18T12:25:44.607Z,44.05
2016-04-18T12:26:51.001Z,44.65
2016-04-18T12:27:44.566Z,44.65
2016-04-18T12:28:44.678Z,43.4
2016-04-18T12:29:44.603Z,43.33
2016-04-18T12:30:44.715Z,42.37
2016-04-18T12:31:44.655Z,42.94
2016-04-18T12:32:44.674Z,43.14
2016-04-18T12:33:44.691Z,42.27
2016-04-18T12:34:44.710Z,43.5
2016-04-18T12:35:44.744Z,44.07
2016-04-18T12:36:44.762Z,44.84
2016-04-18T12:37:44.796Z,45.87
2016-04-18T12:38:44.799Z,45.77
2016-04-18T12:39:44.832Z,46.8
2016-04-18T12:40:44.867Z,47.27
2016-04-18T12:41:44.885Z,47.75
2016-04-18T12:42:44.887Z,48.42
2016-04-18T12:43:45.015Z,48.52
2016-04-18T12:44:44.940Z,48.59
2016-04-18T12:45:44.973Z,48.49
2016-04-18T12:46:44.992Z,48.78
2016-04-18T12:47:44.995Z,49.73
2016-04-18T12:48:57.748Z,48.11
2016-04-18T12:49:45.062Z,47.54
2016-04-18T12:50:45.081Z,47.34
2016-04-18T12:51:51.365Z,48.68
2016-04-18T12:52:57.945Z,50.09
2016-04-18T12:53:45.136Z,49.62
2016-04-18T12:54:45.310Z,49.62
2016-04-18T12:55:45.188Z,50.76
2016-04-18T12:56:45.191Z,49.9
2016-04-18T12:57:57.943Z,49.9
2016-04-18T12:58:45.244Z,49.62
2016-04-18T13:00:04.605Z,49.99
2016-04-18T13:00:45.279Z,50.09
2016-04-18T13:01:45.314Z,49.52
2016-04-18T13:02:45.316Z,48.78
2016-04-18T13:03:45.335Z,48.21
2016-04-18T13:04:45.385Z,47.27
2016-04-18T13:05:45.402Z,45.17
2016-04-18T13:06:45.404Z,44.91